SGCO/CIO METAR and TAF weather

Enter ICAO airport designator
Station Type Date Time Source
SGCO METAR 2021/06/15 09:00 UTC NOAA

SGCO 150900Z 00000KT CAVOK 12/11 Q1019


Station Type Date Time Source
SGCO Decoded METAR 2021/06/15 09:00 UTC NOAA

Concepcion, Paraguay (SGCO) 23-25S 057-18W 74M
Jun 15, 2021 - 05:00 AM EDT / 2021.06.15 0900 UTC
Wind: Calm:0
Visibility: greater than 7 mile(s):0
Temperature: 53 F (12 C)
Dew Point: 51 F (11 C)
Relative Humidity: 93%
Pressure (altimeter): 30.09 in. Hg (1019 hPa)
ob: SGCO 150900Z 00000KT CAVOK 12/11 Q1019
cycle: 9

Station Type Date Time Source
SGCO TAF 2021/06/24 06:00 UTC NOAA

TAF SGCO 240500Z 2406/2506 05007KT CAVOK TX29/2415Z TN17/2500Z
BECMG 2408/2411 VRB03KT 999 TS BKN024 FEW040CB
TEMPO 2412/2415 24015G25KT 7000 TSRA BKN017 FEW040CB PROB30
TEMPO 2416/2418 18012KT 5000 TSRA OVC017 FEW040CB
BECMG 2420/2423 8000 -TSRA BKN017 FEW040CB
BECMG 2500/2503 8000 -RA BKN017

Example: see airport list